^^
Meteo Knjazevac Station Historical Data
Daily Summary for June 13, 2021 Units:  Both    English   Metric
Daily Weekly Monthly Yearly Custom
  High: Low: Average:
Temperature: 86.9 °F /  30.5 °C 47.5 °F /  8.6 °C 66.7 °F /  19.3 °C
Dew Point: 58.2 °F /  14.6 °C 43.5 °F /  6.4 °C 50.3 °F /  10.2 °C
Humidity: 88% 34% 59%
Wind Speed: 9mph /  14.5km/h - 1.6mph /  2.6km/h
Wind Gust: 15mph /  24.1km/h - -
Wind- - WSW
Pressure: 30.09 in /  1018.8 hPa 30.00 in /  1015.8 hPa -
Precipitation: 0.00 in /  0 mm    
Historical Graphs
 
 
Tabular Data for June 13, 2021
Time Temperature Dew Point Pressure Wind Wind Speed Wind Gust Humidity Rainfall Rate (Hourly) solar Conditions
00:00 56.7 °F /  13.7 °C 46.6 °F /  8.1 °C 30.05in /  1017.5hPa Calm   3mph /  4.8km/h 69% 0.00in /  0mm 0 W/m2
00:10 56.4 °F /  13.6 °C 46.7 °F /  8.2 °C 30.05in /  1017.5hPa Calm   2mph /  3.2km/h 70% 0.00in /  0mm 0 W/m2
00:20 55.8 °F /  13.2 °C 46.1 °F /  7.8 °C 30.05in /  1017.5hPa Calm   1mph /  1.6km/h 70% 0.00in /  0mm 0 W/m2
00:30 55.2 °F /  12.9 °C 46.3 °F /  7.9 °C 30.05in /  1017.5hPa Calm   2mph /  3.2km/h 72% 0.00in /  0mm 0 W/m2
00:40 54.9 °F /  12.7 °C 46 °F /  7.8 °C 30.05in /  1017.5hPa Calm   1mph /  1.6km/h 72% 0.00in /  0mm 0 W/m2
00:50 54.3 °F /  12.4 °C 45.8 °F /  7.7 °C 30.05in /  1017.5hPa Calm   2mph /  3.2km/h 73% 0.00in /  0mm 0 W/m2
01:00 54 °F /  12.2 °C 45.5 °F /  7.5 °C 30.05in /  1017.5hPa Calm   2mph /  3.2km/h 73% 0.00in /  0mm 0 W/m2
01:10 53.6 °F /  12 °C 45.5 °F /  7.5 °C 30.05in /  1017.5hPa Calm   2mph /  3.2km/h 74% 0.00in /  0mm 0 W/m2
01:20 53.1 °F /  11.7 °C 45 °F /  7.2 °C 30.05in /  1017.5hPa West 1mph /  1.6km/h 2mph /  3.2km/h 74% 0.00in /  0mm 0 W/m2
01:30 52.7 °F /  11.5 °C 45 °F /  7.2 °C 30.05in /  1017.5hPa NW 1mph /  1.6km/h 3mph /  4.8km/h 75% 0.00in /  0mm 0 W/m2
01:40 52.7 °F /  11.5 °C 45.7 °F /  7.6 °C 30.05in /  1017.5hPa WNW 1mph /  1.6km/h 4mph /  6.4km/h 77% 0.00in /  0mm 0 W/m2
01:50 52.5 °F /  11.4 °C 45.5 °F /  7.5 °C 30.05in /  1017.5hPa WNW 1mph /  1.6km/h 2mph /  3.2km/h 77% 0.00in /  0mm 0 W/m2
02:00 52.2 °F /  11.2 °C 45.2 °F /  7.3 °C 30.05in /  1017.5hPa West 1mph /  1.6km/h 2mph /  3.2km/h 77% 0.00in /  0mm 0 W/m2
02:10 51.8 °F /  11 °C 45.2 °F /  7.3 °C 30.05in /  1017.5hPa WNW 1mph /  1.6km/h 2mph /  3.2km/h 78% 0.00in /  0mm 0 W/m2
02:20 51.4 °F /  10.8 °C 44.8 °F /  7.1 °C 30.05in /  1017.5hPa Calm   2mph /  3.2km/h 78% 0.00in /  0mm 0 W/m2
02:30 51.3 °F /  10.7 °C 44.6 °F /  7 °C 30.05in /  1017.5hPa Calm   2mph /  3.2km/h 78% 0.00in /  0mm 0 W/m2
02:40 51.1 °F /  10.6 °C 44.8 °F /  7.1 °C 30.05in /  1017.5hPa Calm   2mph /  3.2km/h 79% 0.00in /  0mm 0 W/m2
02:50 50.9 °F /  10.5 °C 44.9 °F /  7.2 °C 30.05in /  1017.5hPa NW 1mph /  1.6km/h 3mph /  4.8km/h 80% 0.00in /  0mm 0 W/m2
03:00 50.7 °F /  10.4 °C 44.4 °F /  6.9 °C 30.05in /  1017.5hPa Calm   2mph /  3.2km/h 79% 0.00in /  0mm 0 W/m2
03:10 50.5 °F /  10.3 °C 44.3 °F /  6.8 °C 30.05in /  1017.5hPa Calm   2mph /  3.2km/h 79% 0.00in /  0mm 0 W/m2
03:20 50.4 °F /  10.2 °C 44.4 °F /  6.9 °C 30.05in /  1017.5hPa Calm   2mph /  3.2km/h 80% 0.00in /  0mm 0 W/m2
03:30 50.2 °F /  10.1 °C 44.2 °F /  6.8 °C 30.06in /  1017.8hPa West 1mph /  1.6km/h 2mph /  3.2km/h 80% 0.00in /  0mm 0 W/m2
03:40 49.8 °F /  9.9 °C 43.9 °F /  6.6 °C 30.06in /  1017.8hPa WNW 1mph /  1.6km/h 2mph /  3.2km/h 80% 0.00in /  0mm 0 W/m2
03:50 49.6 °F /  9.8 °C 44 °F /  6.7 °C 30.06in /  1017.8hPa WNW 1mph /  1.6km/h 2mph /  3.2km/h 81% 0.00in /  0mm 0 W/m2
04:00 49.5 °F /  9.7 °C 43.9 °F /  6.6 °C 30.06in /  1017.8hPa NNW 1mph /  1.6km/h 2mph /  3.2km/h 81% 0.00in /  0mm 0 W/m2
04:10 49.5 °F /  9.7 °C 43.9 °F /  6.6 °C 30.06in /  1017.8hPa Calm   3mph /  4.8km/h 81% 0.00in /  0mm 0 W/m2
04:20 49.1 °F /  9.5 °C 44.2 °F /  6.8 °C 30.06in /  1017.8hPa WSW 1mph /  1.6km/h 4mph /  6.4km/h 83% 0.00in /  0mm 0 W/m2
04:30 48.9 °F /  9.4 °C 44 °F /  6.7 °C 30.06in /  1017.8hPa Calm   2mph /  3.2km/h 83% 0.00in /  0mm 0 W/m2
04:40 48.7 °F /  9.3 °C 44.1 °F /  6.7 °C 30.06in /  1017.8hPa West 2mph /  3.2km/h 3mph /  4.8km/h 84% 0.00in /  0mm 0 W/m2
04:50 48.7 °F /  9.3 °C 44.1 °F /  6.7 °C 30.06in /  1017.8hPa WNW 1mph /  1.6km/h 3mph /  4.8km/h 84% 0.00in /  0mm 0 W/m2
05:00 48.7 °F /  9.3 °C 44.1 °F /  6.7 °C 30.06in /  1017.8hPa WNW 1mph /  1.6km/h 4mph /  6.4km/h 84% 0.00in /  0mm 0 W/m2
05:10 48.6 °F /  9.2 °C 43.9 °F /  6.6 °C 30.06in /  1017.8hPa West 1mph /  1.6km/h 3mph /  4.8km/h 84% 0.00in /  0mm 0 W/m2
05:20 48.4 °F /  9.1 °C 43.8 °F /  6.6 °C 30.06in /  1017.8hPa WSW 1mph /  1.6km/h 3mph /  4.8km/h 84% 0.00in /  0mm 0 W/m2
05:30 48.2 °F /  9 °C 43.9 °F /  6.6 °C 30.06in /  1017.8hPa West 2mph /  3.2km/h 3mph /  4.8km/h 85% 0.00in /  0mm 0 W/m2
05:40 48.2 °F /  9 °C 43.9 °F /  6.6 °C 30.07in /  1018.2hPa West 1mph /  1.6km/h 3mph /  4.8km/h 85% 0.00in /  0mm 0 W/m2
05:50 48.4 °F /  9.1 °C 44.1 °F /  6.7 °C 30.07in /  1018.2hPa Calm   2mph /  3.2km/h 85% 0.00in /  0mm 0 W/m2
06:00 48.2 °F /  9 °C 43.9 °F /  6.6 °C 30.07in /  1018.2hPa NNW 1mph /  1.6km/h 2mph /  3.2km/h 85% 0.00in /  0mm 0 W/m2
06:10 48 °F /  8.9 °C 43.7 °F /  6.5 °C 30.07in /  1018.2hPa WNW 1mph /  1.6km/h 2mph /  3.2km/h 85% 0.00in /  0mm 3 W/m2
06:20 47.8 °F /  8.8 °C 43.6 °F /  6.4 °C 30.07in /  1018.2hPa Calm   2mph /  3.2km/h 85% 0.00in /  0mm 11 W/m2
06:30 47.8 °F /  8.8 °C 43.5 °F /  6.4 °C 30.07in /  1018.2hPa WNW 1mph /  1.6km/h 3mph /  4.8km/h 85% 0.00in /  0mm 21 W/m2
06:40 47.8 °F /  8.8 °C 43.5 °F /  6.4 °C 30.07in /  1018.2hPa WNW 1mph /  1.6km/h 3mph /  4.8km/h 85% 0.00in /  0mm 31 W/m2
06:50 47.5 °F /  8.6 °C 43.5 °F /  6.4 °C 30.07in /  1018.2hPa WSW 2mph /  3.2km/h 3mph /  4.8km/h 86% 0.00in /  0mm 41 W/m2
07:00 47.5 °F /  8.6 °C 44.1 °F /  6.7 °C 30.08in /  1018.5hPa WNW 2mph /  3.2km/h 4mph /  6.4km/h 88% 0.00in /  0mm 71 W/m2
07:10 47.8 °F /  8.8 °C 44.5 °F /  6.9 °C 30.08in /  1018.5hPa Calm   3mph /  4.8km/h 88% 0.00in /  0mm 98 W/m2
07:20 48.2 °F /  9 °C 44.8 °F /  7.1 °C 30.08in /  1018.5hPa West 2mph /  3.2km/h 3mph /  4.8km/h 88% 0.00in /  0mm 125 W/m2
07:30 48.7 °F /  9.3 °C 45.3 °F /  7.4 °C 30.08in /  1018.5hPa WNW 1mph /  1.6km/h 3mph /  4.8km/h 88% 0.00in /  0mm 154 W/m2
07:40 49.5 °F /  9.7 °C 46.1 °F /  7.8 °C 30.08in /  1018.5hPa WNW 1mph /  1.6km/h 3mph /  4.8km/h 88% 0.00in /  0mm 183 W/m2
07:50 50.2 °F /  10.1 °C 46.8 °F /  8.2 °C 30.08in /  1018.5hPa WNW 1mph /  1.6km/h 2mph /  3.2km/h 88% 0.00in /  0mm 214 W/m2
08:00 51.1 °F /  10.6 °C 47 °F /  8.3 °C 30.08in /  1018.5hPa NW 1mph /  1.6km/h 2mph /  3.2km/h 86% 0.00in /  0mm 243 W/m2
08:10 52.2 °F /  11.2 °C 48.1 °F /  8.9 °C 30.08in /  1018.5hPa WNW 1mph /  1.6km/h 3mph /  4.8km/h 86% 0.00in /  0mm 278 W/m2
08:20 53.4 °F /  11.9 °C 49 °F /  9.4 °C 30.08in /  1018.5hPa WSW 1mph /  1.6km/h 2mph /  3.2km/h 85% 0.00in /  0mm 313 W/m2
08:30 55.1 °F /  12.8 °C 50.3 °F /  10.2 °C 30.08in /  1018.5hPa WSW 1mph /  1.6km/h 2mph /  3.2km/h 84% 0.00in /  0mm 344 W/m2
08:40 57.4 °F /  14.1 °C 50.9 °F /  10.5 °C 30.08in /  1018.5hPa West 1mph /  1.6km/h 2mph /  3.2km/h 79% 0.00in /  0mm 376 W/m2
08:50 60.1 °F /  15.6 °C 51.8 °F /  11 °C 30.08in /  1018.5hPa SW 1mph /  1.6km/h 2mph /  3.2km/h 74% 0.00in /  0mm 319 W/m2
09:00 62.2 °F /  16.8 °C 53.1 °F /  11.7 °C 30.08in /  1018.5hPa WSW 1mph /  1.6km/h 2mph /  3.2km/h 72% 0.00in /  0mm 143 W/m2
09:10 64.2 °F /  17.9 °C 53.4 °F /  11.9 °C 30.08in /  1018.5hPa Calm   2mph /  3.2km/h 68% 0.00in /  0mm 370 W/m2
09:20 66.2 °F /  19 °C 54.1 °F /  12.3 °C 30.08in /  1018.5hPa Calm   2mph /  3.2km/h 65% 0.00in /  0mm 510 W/m2
09:30 68 °F /  20 °C 55.4 °F /  13 °C 30.08in /  1018.5hPa WNW 1mph /  1.6km/h 2mph /  3.2km/h 64% 0.00in /  0mm 542 W/m2
09:40 69.8 °F /  21 °C 56.2 °F /  13.4 °C 30.08in /  1018.5hPa SW 1mph /  1.6km/h 3mph /  4.8km/h 62% 0.00in /  0mm 566 W/m2
09:50 71.2 °F /  21.8 °C 55.2 °F /  12.9 °C 30.08in /  1018.5hPa North 1mph /  1.6km/h 2mph /  3.2km/h 57% 0.00in /  0mm 590 W/m2
10:00 72.5 °F /  22.5 °C 55.4 °F /  13 °C 30.08in /  1018.5hPa Calm   3mph /  4.8km/h 55% 0.00in /  0mm 612 W/m2
10:10 73.8 °F /  23.2 °C 55.6 °F /  13.1 °C 30.08in /  1018.5hPa Calm   4mph /  6.4km/h 53% 0.00in /  0mm 633 W/m2
10:20 74.9 °F /  23.8 °C 56 °F /  13.3 °C 30.08in /  1018.5hPa SSE 1mph /  1.6km/h 4mph /  6.4km/h 52% 0.00in /  0mm 653 W/m2
10:30 75.9 °F /  24.4 °C 57 °F /  13.9 °C 30.07in /  1018.2hPa WNW 1mph /  1.6km/h 3mph /  4.8km/h 52% 0.00in /  0mm 671 W/m2
10:40 77 °F /  25 °C 55.8 °F /  13.2 °C 30.07in /  1018.2hPa ESE 1mph /  1.6km/h 5mph /  8km/h 48% 0.00in /  0mm 161 W/m2
10:50 78.1 °F /  25.6 °C 56.8 °F /  13.8 °C 30.07in /  1018.2hPa West 1mph /  1.6km/h 3mph /  4.8km/h 48% 0.00in /  0mm 704 W/m2
11:00 79 °F /  26.1 °C 57 °F /  13.9 °C 30.07in /  1018.2hPa WNW 2mph /  3.2km/h 4mph /  6.4km/h 47% 0.00in /  0mm 718 W/m2
11:10 79.9 °F /  26.6 °C 57.8 °F /  14.3 °C 30.06in /  1017.8hPa ENE 2mph /  3.2km/h 5mph /  8km/h 47% 0.00in /  0mm 731 W/m2
11:20 80.8 °F /  27.1 °C 57.5 °F /  14.2 °C 30.06in /  1017.8hPa NNE 2mph /  3.2km/h 9mph /  14.5km/h 45% 0.00in /  0mm 742 W/m2
11:30 81.5 °F /  27.5 °C 57.5 °F /  14.2 °C 30.06in /  1017.8hPa East 3mph /  4.8km/h 6mph /  9.7km/h 44% 0.00in /  0mm 396 W/m2
11:40 81.7 °F /  27.6 °C 57 °F /  13.9 °C 30.06in /  1017.8hPa ESE 3mph /  4.8km/h 10mph /  16.1km/h 43% 0.00in /  0mm 230 W/m2
11:50 82.1 °F /  27.8 °C 58 °F /  14.4 °C 30.06in /  1017.8hPa ESE 2mph /  3.2km/h 10mph /  16.1km/h 44% 0.00in /  0mm 698 W/m2
12:00 82.9 °F /  28.3 °C 58.1 °F /  14.5 °C 30.05in /  1017.5hPa SSE 3mph /  4.8km/h 8mph /  12.9km/h 43% 0.00in /  0mm 771 W/m2
12:10 83.1 °F /  28.4 °C 57.6 °F /  14.2 °C 30.05in /  1017.5hPa SSE 3mph /  4.8km/h 8mph /  12.9km/h 42% 0.00in /  0mm 774 W/m2
12:20 83.5 °F /  28.6 °C 56.6 °F /  13.7 °C 30.05in /  1017.5hPa SSE 2mph /  3.2km/h 8mph /  12.9km/h 40% 0.00in /  0mm 776 W/m2
12:30 83.8 °F /  28.8 °C 56.9 °F /  13.8 °C 30.04in /  1017.2hPa SSW 2mph /  3.2km/h 7mph /  11.3km/h 40% 0.00in /  0mm 776 W/m2
12:40 83.9 °F /  28.8 °C 57 °F /  13.9 °C 30.04in /  1017.2hPa SSW 1mph /  1.6km/h 8mph /  12.9km/h 40% 0.00in /  0mm 774 W/m2
12:50 84.8 °F /  29.3 °C 57.8 °F /  14.3 °C 30.04in /  1017.2hPa ENE 2mph /  3.2km/h 7mph /  11.3km/h 40% 0.00in /  0mm 771 W/m2
13:00 85.3 °F /  29.6 °C 58.2 °F /  14.6 °C 30.04in /  1017.2hPa SE 2mph /  3.2km/h 7mph /  11.3km/h 40% 0.00in /  0mm 766 W/m2
13:10 86 °F /  30 °C 58.2 °F /  14.6 °C 30.04in /  1017.2hPa NNE 2mph /  3.2km/h 7mph /  11.3km/h 39% 0.00in /  0mm 759 W/m2
13:20 86.5 °F /  30.3 °C 57.9 °F /  14.4 °C 30.03in /  1016.8hPa ENE 2mph /  3.2km/h 10mph /  16.1km/h 38% 0.00in /  0mm 751 W/m2
13:30 86.9 °F /  30.5 °C 58.2 °F /  14.6 °C 30.03in /  1016.8hPa East 5mph /  8km/h 10mph /  16.1km/h 38% 0.00in /  0mm 227 W/m2
13:40 86 °F /  30 °C 57.4 °F /  14.1 °C 30.03in /  1016.8hPa SE 5mph /  8km/h 7mph /  11.3km/h 38% 0.00in /  0mm 730 W/m2
13:50 86.4 °F /  30.2 °C 57.8 °F /  14.3 °C 30.02in /  1016.5hPa West 3mph /  4.8km/h 5mph /  8km/h 38% 0.00in /  0mm 718 W/m2
14:00 86.7 °F /  30.4 °C 58.1 °F /  14.5 °C 30.02in /  1016.5hPa SW 2mph /  3.2km/h 8mph /  12.9km/h 38% 0.00in /  0mm 703 W/m2
14:10 86.5 °F /  30.3 °C 57.2 °F /  14 °C 30.02in /  1016.5hPa SSW 1mph /  1.6km/h 7mph /  11.3km/h 37% 0.00in /  0mm 687 W/m2
14:20 86.9 °F /  30.5 °C 58.2 °F /  14.6 °C 30.02in /  1016.5hPa SW 5mph /  8km/h 8mph /  12.9km/h 38% 0.00in /  0mm 670 W/m2
14:30 86.9 °F /  30.5 °C 57.5 °F /  14.2 °C 30.02in /  1016.5hPa SW 6mph /  9.7km/h 9mph /  14.5km/h 37% 0.00in /  0mm 248 W/m2
14:40 86 °F /  30 °C 56.7 °F /  13.7 °C 30.01in /  1016.1hPa West 1mph /  1.6km/h 8mph /  12.9km/h 37% 0.00in /  0mm 632 W/m2
14:50 86 °F /  30 °C 56.7 °F /  13.7 °C 30.01in /  1016.1hPa NNW 1mph /  1.6km/h 4mph /  6.4km/h 37% 0.00in /  0mm 287 W/m2
15:00 86.4 °F /  30.2 °C 57 °F /  13.9 °C 30.01in /  1016.1hPa NNE 3mph /  4.8km/h 7mph /  11.3km/h 37% 0.00in /  0mm 588 W/m2
15:10 86.2 °F /  30.1 °C 56.9 °F /  13.8 °C 30.01in /  1016.1hPa NNE 1mph /  1.6km/h 6mph /  9.7km/h 37% 0.00in /  0mm 163 W/m2
15:20 85.8 °F /  29.9 °C 57.2 °F /  14 °C 30.01in /  1016.1hPa NNE 3mph /  4.8km/h 5mph /  8km/h 38% 0.00in /  0mm 156 W/m2
15:30 85.3 °F /  29.6 °C 56.8 °F /  13.8 °C 30.01in /  1016.1hPa NNE 1mph /  1.6km/h 6mph /  9.7km/h 38% 0.00in /  0mm 199 W/m2
15:40 85.1 °F /  29.5 °C 56.7 °F /  13.7 °C 30.01in /  1016.1hPa NE 1mph /  1.6km/h 7mph /  11.3km/h 38% 0.00in /  0mm 437 W/m2
15:50 85.3 °F /  29.6 °C 56.1 °F /  13.4 °C 30.01in /  1016.1hPa NE 2mph /  3.2km/h 6mph /  9.7km/h 37% 0.00in /  0mm 147 W/m2
16:00 84.9 °F /  29.4 °C 56.4 °F /  13.6 °C 30.00in /  1015.8hPa North 3mph /  4.8km/h 7mph /  11.3km/h 38% 0.00in /  0mm 151 W/m2
16:10 84.6 °F /  29.2 °C 56.2 °F /  13.4 °C 30.00in /  1015.8hPa West 5mph /  8km/h 9mph /  14.5km/h 38% 0.00in /  0mm 375 W/m2
16:20 84.7 °F /  29.3 °C 55.6 °F /  13.1 °C 30.00in /  1015.8hPa West 5mph /  8km/h 8mph /  12.9km/h 37% 0.00in /  0mm 375 W/m2
16:30 84.9 °F /  29.4 °C 55.7 °F /  13.2 °C 30.00in /  1015.8hPa WSW 3mph /  4.8km/h 9mph /  14.5km/h 37% 0.00in /  0mm 329 W/m2
16:40 84.9 °F /  29.4 °C 54.2 °F /  12.3 °C 30.00in /  1015.8hPa WSW 6mph /  9.7km/h 12mph /  19.3km/h 35% 0.00in /  0mm 306 W/m2
16:50 84.7 °F /  29.3 °C 54.1 °F /  12.3 °C 30.00in /  1015.8hPa West 5mph /  8km/h 12mph /  19.3km/h 35% 0.00in /  0mm 276 W/m2
17:00 84.5 °F /  29.2 °C 53.1 °F /  11.7 °C 30.00in /  1015.8hPa WNW 7mph /  11.3km/h 12mph /  19.3km/h 34% 0.00in /  0mm 242 W/m2
17:10 84 °F /  28.9 °C 52.6 °F /  11.4 °C 30.00in /  1015.8hPa West 9mph /  14.5km/h 14mph /  22.5km/h 34% 0.00in /  0mm 208 W/m2
17:20 83.8 °F /  28.8 °C 53.2 °F /  11.8 °C 30.01in /  1016.1hPa West 7mph /  11.3km/h 15mph /  24.1km/h 35% 0.00in /  0mm 177 W/m2
17:30 83.3 °F /  28.5 °C 52 °F /  11.1 °C 30.01in /  1016.1hPa West 6mph /  9.7km/h 12mph /  19.3km/h 34% 0.00in /  0mm 151 W/m2
17:40 82.8 °F /  28.2 °C 52.3 °F /  11.3 °C 30.01in /  1016.1hPa West 6mph /  9.7km/h 12mph /  19.3km/h 35% 0.00in /  0mm 120 W/m2
17:50 82.2 °F /  27.9 °C 51.1 °F /  10.6 °C 30.01in /  1016.1hPa West 6mph /  9.7km/h 10mph /  16.1km/h 34% 0.00in /  0mm 92 W/m2
18:00 81.7 °F /  27.6 °C 51.4 °F /  10.8 °C 30.01in /  1016.1hPa WNW 5mph /  8km/h 10mph /  16.1km/h 35% 0.00in /  0mm 69 W/m2
18:10 81.1 °F /  27.3 °C 50.9 °F /  10.5 °C 30.02in /  1016.5hPa WNW 6mph /  9.7km/h 12mph /  19.3km/h 35% 0.00in /  0mm 50 W/m2
18:20 80.6 °F /  27 °C 51.9 °F /  11.1 °C 30.02in /  1016.5hPa WNW 5mph /  8km/h 10mph /  16.1km/h 37% 0.00in /  0mm 33 W/m2
18:30 79.8 °F /  26.6 °C 51.2 °F /  10.7 °C 30.02in /  1016.5hPa WNW 1mph /  1.6km/h 7mph /  11.3km/h 37% 0.00in /  0mm 18 W/m2
18:40 79 °F /  26.1 °C 51.2 °F /  10.7 °C 30.02in /  1016.5hPa NNW 2mph /  3.2km/h 5mph /  8km/h 38% 0.00in /  0mm 9 W/m2
18:50 78.2 °F /  25.7 °C 50.5 °F /  10.3 °C 30.02in /  1016.5hPa NNW 2mph /  3.2km/h 6mph /  9.7km/h 38% 0.00in /  0mm 0 W/m2
19:00 77.2 °F /  25.1 °C 50.3 °F /  10.2 °C 30.02in /  1016.5hPa NNW 2mph /  3.2km/h 5mph /  8km/h 39% 0.00in /  0mm 0 W/m2
19:10 76.4 °F /  24.7 °C 49.6 °F /  9.8 °C 30.03in /  1016.8hPa NNW 2mph /  3.2km/h 5mph /  8km/h 39% 0.00in /  0mm 0 W/m2
19:20 75.5 °F /  24.2 °C 49.5 °F /  9.7 °C 30.04in /  1017.2hPa NNW 1mph /  1.6km/h 4mph /  6.4km/h 40% 0.00in /  0mm 0 W/m2
19:30 74.4 °F /  23.6 °C 50.5 °F /  10.3 °C 30.04in /  1017.2hPa Calm   3mph /  4.8km/h 43% 0.00in /  0mm 0 W/m2
19:40 73.2 °F /  22.9 °C 49.9 °F /  9.9 °C 30.04in /  1017.2hPa Calm   2mph /  3.2km/h 44% 0.00in /  0mm 0 W/m2
19:50 72.1 °F /  22.3 °C 49.6 °F /  9.8 °C 30.05in /  1017.5hPa SSW 1mph /  1.6km/h 2mph /  3.2km/h 45% 0.00in /  0mm 0 W/m2
20:00 71.1 °F /  21.7 °C 50.4 °F /  10.2 °C 30.05in /  1017.5hPa South 1mph /  1.6km/h 3mph /  4.8km/h 48% 0.00in /  0mm 0 W/m2
20:10 70.2 °F /  21.2 °C 50.1 °F /  10.1 °C 30.06in /  1017.8hPa West 1mph /  1.6km/h 2mph /  3.2km/h 49% 0.00in /  0mm 0 W/m2
20:20 69.4 °F /  20.8 °C 51 °F /  10.6 °C 30.06in /  1017.8hPa SW 1mph /  1.6km/h 2mph /  3.2km/h 52% 0.00in /  0mm 0 W/m2
20:30 68.5 °F /  20.3 °C 50.2 °F /  10.1 °C 30.06in /  1017.8hPa SW 1mph /  1.6km/h 3mph /  4.8km/h 52% 0.00in /  0mm 0 W/m2
20:40 67.8 °F /  19.9 °C 50.5 °F /  10.3 °C 30.06in /  1017.8hPa West 2mph /  3.2km/h 3mph /  4.8km/h 54% 0.00in /  0mm 0 W/m2
20:50 66.7 °F /  19.3 °C 49.5 °F /  9.7 °C 30.07in /  1018.2hPa WSW 3mph /  4.8km/h 5mph /  8km/h 54% 0.00in /  0mm 0 W/m2
21:00 66 °F /  18.9 °C 48.8 °F /  9.3 °C 30.07in /  1018.2hPa WNW 2mph /  3.2km/h 5mph /  8km/h 54% 0.00in /  0mm 0 W/m2
21:10 65.1 °F /  18.4 °C 48.5 °F /  9.2 °C 30.07in /  1018.2hPa West 2mph /  3.2km/h 5mph /  8km/h 55% 0.00in /  0mm 0 W/m2
21:20 64.6 °F /  18.1 °C 48.5 °F /  9.2 °C 30.07in /  1018.2hPa West 2mph /  3.2km/h 5mph /  8km/h 56% 0.00in /  0mm 0 W/m2
21:30 64 °F /  17.8 °C 48.5 °F /  9.2 °C 30.07in /  1018.2hPa West 2mph /  3.2km/h 5mph /  8km/h 57% 0.00in /  0mm 0 W/m2
21:40 63.4 °F /  17.4 °C 48.4 °F /  9.1 °C 30.08in /  1018.5hPa Calm   3mph /  4.8km/h 58% 0.00in /  0mm 0 W/m2
21:50 62.8 °F /  17.1 °C 47.8 °F /  8.8 °C 30.08in /  1018.5hPa WSW 2mph /  3.2km/h 3mph /  4.8km/h 58% 0.00in /  0mm 0 W/m2
22:00 62.4 °F /  16.9 °C 47.9 °F /  8.8 °C 30.08in /  1018.5hPa NW 1mph /  1.6km/h 3mph /  4.8km/h 59% 0.00in /  0mm 0 W/m2
22:10 62.2 °F /  16.8 °C 47.7 °F /  8.7 °C 30.08in /  1018.5hPa Calm   2mph /  3.2km/h 59% 0.00in /  0mm 0 W/m2
22:20 61.9 °F /  16.6 °C 47.4 °F /  8.6 °C 30.08in /  1018.5hPa Calm   2mph /  3.2km/h 59% 0.00in /  0mm 0 W/m2
22:30 61.5 °F /  16.4 °C 48.4 °F /  9.1 °C 30.08in /  1018.5hPa Calm   2mph /  3.2km/h 62% 0.00in /  0mm 0 W/m2
22:40 60.9 °F /  16.1 °C 47.8 °F /  8.8 °C 30.08in /  1018.5hPa Calm   2mph /  3.2km/h 62% 0.00in /  0mm 0 W/m2
22:50 60.3 °F /  15.7 °C 47.6 °F /  8.7 °C 30.08in /  1018.5hPa Calm   2mph /  3.2km/h 63% 0.00in /  0mm 0 W/m2
23:00 59.7 °F /  15.4 °C 47.5 °F /  8.6 °C 30.08in /  1018.5hPa Calm   1mph /  1.6km/h 64% 0.00in /  0mm 0 W/m2
23:10 59.2 °F /  15.1 °C 47 °F /  8.3 °C 30.09in /  1018.8hPa Calm   1mph /  1.6km/h 64% 0.00in /  0mm 0 W/m2
23:20 58.8 °F /  14.9 °C 47 °F /  8.3 °C 30.09in /  1018.8hPa NNW 1mph /  1.6km/h 2mph /  3.2km/h 65% 0.00in /  0mm 0 W/m2
23:30 58.3 °F /  14.6 °C 46.6 °F /  8.1 °C 30.09in /  1018.8hPa Calm   1mph /  1.6km/h 65% 0.00in /  0mm 0 W/m2
23:40 57.7 °F /  14.3 °C 46.8 °F /  8.2 °C 30.09in /  1018.8hPa Calm   2mph /  3.2km/h 67% 0.00in /  0mm 0 W/m2
23:50 57 °F /  13.9 °C 46.6 °F /  8.1 °C 30.09in /  1018.8hPa Calm   1mph /  1.6km/h 68% 0.00in /  0mm 0 W/m2
Knjazevac, Serbia
Compliments of Weather Underground - 2 mb